Time;durP1;ratioP1;P1;durP2;ratioP2;P2;SDS_P1;SDS_P2;PMS_P1;PMS_P2;Temp;Humidity;BMP_temperature;BMP_pressure;BME280_temperature;BME280_humidity;BME280_pressure;Samples;Min_cycle;Max_cycle;Signal;HPM_P1;HPM_P2
2023/10/24 00:01:53;;;;;;;10.07;9.27;;;;;;;13.51;95.53;99583.41;5113771;28;20216;-81
2023/10/24 00:04:20;;;;;;;10.10;9.30;;;;;;;13.53;95.31;99580.72;5112688;28;20221;-82
2023/10/24 00:06:46;;;;;;;9.83;9.13;;;;;;;13.53;95.06;99585.97;5116809;28;20210;-81
2023/10/24 00:09:14;;;;;;;9.00;8.37;;;;;;;13.54;94.97;99585.03;5116953;28;20230;-81
2023/10/24 00:11:40;;;;;;;9.63;9.03;;;;;;;13.55;94.48;99584.97;5117494;28;20629;-81
2023/10/24 00:14:07;;;;;;;9.03;8.33;;;;;;;13.56;94.60;99585.81;5117446;28;20211;-81
2023/10/24 00:16:33;;;;;;;9.30;8.60;;;;;;;13.56;94.07;99593.66;5117788;28;20290;-80
2023/10/24 00:18:59;;;;;;;9.80;8.87;;;;;;;13.55;94.24;99589.38;5117843;28;20233;-81
2023/10/24 00:21:26;;;;;;;9.47;8.63;;;;;;;13.55;94.41;99587.59;5117967;28;20200;-81
2023/10/24 00:23:53;;;;;;;9.43;8.63;;;;;;;13.56;94.23;99585.81;5109904;28;20228;-80
2023/10/24 00:26:20;;;;;;;8.93;8.23;;;;;;;13.56;93.92;99580.56;5118925;28;20614;-81
2023/10/24 00:28:47;;;;;;;8.93;8.13;;;;;;;13.55;93.77;99584.13;5117615;28;20598;-80
2023/10/24 00:31:13;;;;;;;9.67;8.87;;;;;;;13.53;94.03;99573.69;5128206;28;20199;-81
2023/10/24 00:33:40;;;;;;;9.70;9.00;;;;;;;13.55;94.25;99563.16;5141230;28;20195;-81
2023/10/24 00:36:06;;;;;;;10.10;9.20;;;;;;;13.55;94.35;99552.66;5132637;28;20184;-81
2023/10/24 00:38:33;;;;;;;9.90;8.90;;;;;;;13.54;94.34;99549.19;5140634;28;20203;-81
2023/10/24 00:41:00;;;;;;;10.03;9.27;;;;;;;13.54;94.49;99551.81;5133134;28;20211;-81
2023/10/24 00:43:27;;;;;;;10.27;9.53;;;;;;;13.53;94.48;99542.22;5135044;28;20248;-80
2023/10/24 00:45:54;;;;;;;10.23;9.43;;;;;;;13.52;94.68;99540.53;5113597;28;20203;-81
2023/10/24 00:48:20;;;;;;;9.97;9.07;;;;;;;13.51;94.28;99529.19;5121220;27;20725;-80
2023/10/24 00:50:47;;;;;;;9.87;9.07;;;;;;;13.50;94.57;99531.91;5121481;28;20208;-80
2023/10/24 00:53:14;;;;;;;10.17;9.23;;;;;;;13.50;94.87;99530.13;5115980;27;20210;-81
2023/10/24 00:55:40;;;;;;;10.13;9.23;;;;;;;13.51;94.77;99517.84;5101489;28;20206;-80
2023/10/24 00:58:09;;;;;;;9.73;8.83;;;;;;;13.50;94.65;99505.69;5111001;28;20226;-80
2023/10/24 01:00:38;;;;;;;9.70;9.00;;;;;;;13.50;94.56;99503.06;5113379;28;20214;-81
2023/10/24 01:03:05;;;;;;;9.53;8.73;;;;;;;13.47;94.96;99509.28;5102724;28;20219;-81
2023/10/24 01:05:32;;;;;;;9.30;8.53;;;;;;;13.49;94.41;99499.56;5101413;28;20326;-81
2023/10/24 01:07:59;;;;;;;9.53;8.83;;;;;;;13.49;95.04;99514.44;5114237;28;20223;-81
2023/10/24 01:10:25;;;;;;;8.17;7.57;;;;;;;13.47;94.97;99508.44;5115180;28;20268;-80
2023/10/24 01:12:51;;;;;;;8.80;8.10;;;;;;;13.46;95.24;99515.44;5113299;28;20211;-80
2023/10/24 01:15:18;;;;;;;8.23;7.57;;;;;;;13.48;95.19;99508.38;5113130;28;20206;-80
2023/10/24 01:17:49;;;;;;;8.43;7.83;;;;;;;13.47;95.23;99497.94;5113494;28;20219;-80
2023/10/24 01:20:16;;;;;;;9.57;8.50;;;;;;;13.49;95.05;99506.59;5111268;28;20220;-80
2023/10/24 01:22:44;;;;;;;8.87;8.27;;;;;;;13.47;95.22;99497.94;5109127;28;20287;-80
2023/10/24 01:25:14;;;;;;;9.17;8.57;;;;;;;13.47;95.17;99511.06;5099727;28;20565;-81
2023/10/24 01:27:42;;;;;;;9.47;8.63;;;;;;;13.45;95.70;99513.75;5104963;28;20223;-81
2023/10/24 01:30:10;;;;;;;14.00;7.57;;;;;;;13.49;95.96;99499.56;5105398;28;20198;-80
2023/10/24 01:32:37;;;;;;;9.27;8.37;;;;;;;13.46;95.98;99484.00;5098860;28;20217;-80
2023/10/24 01:35:03;;;;;;;9.23;7.97;;;;;;;13.45;96.17;99479.66;5099086;28;20579;-81
2023/10/24 01:37:30;;;;;;;8.43;7.70;;;;;;;13.46;96.11;99480.53;5098262;28;20241;-81
2023/10/24 01:39:58;;;;;;;8.83;8.13;;;;;;;13.42;96.80;99474.56;5098379;28;20213;-80
2023/10/24 01:42:24;;;;;;;8.57;7.77;;;;;;;13.49;96.49;99470.72;5097689;28;20201;-80
2023/10/24 01:44:51;;;;;;;8.20;7.43;;;;;;;13.51;95.98;99463.63;5097709;28;20743;-81
2023/10/24 01:47:18;;;;;;;9.43;8.70;;;;;;;13.56;95.63;99471.31;5099599;28;20209;-81
2023/10/24 01:49:44;;;;;;;8.50;7.80;;;;;;;13.48;95.86;99486.56;5099751;28;20202;-80
2023/10/24 01:52:11;;;;;;;9.73;8.97;;;;;;;12.99;99.51;99447.66;5098319;28;20205;-80
2023/10/24 01:54:37;;;;;;;8.80;8.10;;;;;;;13.14;100.00;99411.19;5097883;28;20202;-81
2023/10/24 01:57:05;;;;;;;9.10;8.40;;;;;;;13.27;99.10;99405.31;5099753;28;20201;-80
2023/10/24 01:59:32;;;;;;;9.63;8.67;;;;;;;13.26;99.17;99413.25;5117250;28;20247;-80
2023/10/24 02:01:58;;;;;;;9.37;8.27;;;;;;;13.28;99.84;99404.41;5124022;28;20185;-81
2023/10/24 02:04:24;;;;;;;8.50;7.80;;;;;;;13.30;99.92;99405.22;5128520;28;20221;-80
2023/10/24 02:06:51;;;;;;;9.03;8.27;;;;;;;13.34;100.00;99403.31;5118966;27;20573;-80
2023/10/24 02:09:17;;;;;;;9.73;8.73;;;;;;;13.37;100.00;99405.78;5118380;27;20231;-80
2023/10/24 02:11:44;;;;;;;10.83;8.17;;;;;;;13.39;100.00;99395.22;5117799;28;20204;-81
2023/10/24 02:14:11;;;;;;;9.80;8.10;;;;;;;13.41;99.49;99393.38;5116953;28;20208;-80
2023/10/24 02:16:38;;;;;;;8.27;7.67;;;;;;;13.37;99.52;99391.81;5118328;28;20209;-80
2023/10/24 02:19:05;;;;;;;11.03;8.53;;;;;;;13.34;99.42;99390.22;5118503;28;20224;-80
2023/10/24 02:21:31;;;;;;;8.33;7.63;;;;;;;13.41;99.52;99398.63;5118541;28;20591;-81
2023/10/24 02:23:57;;;;;;;8.40;7.60;;;;;;;13.44;99.01;99403.72;5117810;27;20216;-80
2023/10/24 02:26:24;;;;;;;8.93;8.23;;;;;;;13.43;98.55;99405.47;5117457;28;20208;-81
2023/10/24 02:28:50;;;;;;;9.50;8.70;;;;;;;13.40;98.33;99410.00;5116175;28;20220;-80
2023/10/24 02:31:18;;;;;;;9.67;8.67;;;;;;;13.42;98.32;99403.78;5116491;28;20226;-80
2023/10/24 02:33:44;;;;;;;9.07;8.27;;;;;;;13.41;98.69;99401.25;5117298;28;20563;-80
2023/10/24 02:36:14;;;;;;;9.50;8.67;;;;;;;13.38;98.11;99397.00;5117599;28;20204;-80
2023/10/24 02:38:40;;;;;;;9.20;8.50;;;;;;;13.38;97.85;99394.38;5117948;28;20226;-80
2023/10/24 02:41:07;;;;;;;9.27;8.47;;;;;;;13.35;97.84;99399.75;5117383;28;20695;-80
2023/10/24 02:43:33;;;;;;;9.77;8.97;;;;;;;13.27;98.12;99394.84;5116599;28;20231;-80
2023/10/24 02:46:03;;;;;;;9.60;8.90;;;;;;;13.23;98.48;99384.56;5116499;28;20705;-80
2023/10/24 02:48:31;;;;;;;9.93;8.87;;;;;;;13.20;98.83;99368.97;5117281;28;20231;-79
2023/10/24 02:50:58;;;;;;;8.73;8.13;;;;;;;13.16;98.77;99357.81;5115958;28;20215;-79
2023/10/24 02:53:24;;;;;;;9.43;8.40;;;;;;;13.12;98.29;99356.22;5116034;28;20233;-80
2023/10/24 02:55:51;;;;;;;9.80;8.90;;;;;;;13.11;99.04;99341.47;5116064;28;20355;-80
2023/10/24 02:58:18;;;;;;;9.30;8.60;;;;;;;13.17;98.17;99337.69;5115537;28;20223;-80
2023/10/24 03:00:46;;;;;;;9.43;8.57;;;;;;;13.18;97.68;99347.25;5110775;28;20204;-80
2023/10/24 03:03:13;;;;;;;9.40;8.70;;;;;;;13.17;97.75;99346.41;5116355;28;20199;-80
2023/10/24 03:05:40;;;;;;;9.03;8.23;;;;;;;13.13;97.80;99352.72;5099181;28;20295;-79
2023/10/24 03:08:07;;;;;;;9.10;8.40;;;;;;;13.15;97.54;99347.41;5096709;28;20234;-80
2023/10/24 03:10:39;;;;;;;9.07;8.17;;;;;;;13.13;97.58;99357.09;5104261;28;20203;-80
2023/10/24 03:13:05;;;;;;;8.10;7.47;;;;;;;13.15;97.91;99365.75;5108479;28;20201;-80
2023/10/24 03:15:33;;;;;;;8.27;7.67;;;;;;;13.13;97.66;99355.34;5116037;28;20199;-79
2023/10/24 03:17:59;;;;;;;8.77;8.07;;;;;;;13.11;97.92;99360.63;5116376;28;20253;-80
2023/10/24 03:20:27;;;;;;;8.50;7.80;;;;;;;13.13;97.92;99342.22;5116197;28;20209;-80
2023/10/24 03:22:54;;;;;;;8.00;7.30;;;;;;;13.07;98.19;99338.13;5115398;28;20208;-80
2023/10/24 03:25:21;;;;;;;8.40;7.70;;;;;;;13.06;98.57;99338.19;5115881;28;20231;-80
2023/10/24 03:27:47;;;;;;;8.27;7.70;;;;;;;13.05;98.65;99334.72;5115039;28;20232;-81
2023/10/24 03:30:14;;;;;;;8.47;7.87;;;;;;;13.06;98.67;99332.94;5116258;28;20203;-80
2023/10/24 03:32:40;;;;;;;8.33;7.63;;;;;;;13.06;98.82;99328.59;5115679;28;20217;-80
2023/10/24 03:35:07;;;;;;;8.40;7.70;;;;;;;13.08;98.33;99328.47;5107171;28;20201;-80
2023/10/24 03:37:34;;;;;;;8.00;7.30;;;;;;;13.06;98.54;99320.72;5114909;28;20576;-80
2023/10/24 03:40:02;;;;;;;8.70;7.47;;;;;;;13.05;98.78;99326.03;5115975;28;20236;-80
2023/10/24 03:42:30;;;;;;;7.53;7.03;;;;;;;13.07;98.32;99322.41;5116202;28;20237;-80
2023/10/24 03:44:56;;;;;;;7.30;6.70;;;;;;;13.07;98.33;99329.41;5115343;27;20225;-80
2023/10/24 03:47:23;;;;;;;7.30;6.73;;;;;;;13.05;98.13;99342.59;5115551;28;20204;-80
2023/10/24 03:49:49;;;;;;;8.07;7.30;;;;;;;13.07;97.84;99348.59;5114926;28;20282;-80
2023/10/24 03:52:16;;;;;;;8.23;7.30;;;;;;;13.05;97.32;99352.22;5115217;28;20491;-80
2023/10/24 03:54:42;;;;;;;6.80;6.20;;;;;;;13.06;97.48;99349.53;5115895;28;20204;-81
2023/10/24 03:57:10;;;;;;;6.90;6.40;;;;;;;13.05;97.46;99360.09;5107424;28;20202;-81
2023/10/24 03:59:36;;;;;;;7.13;6.53;;;;;;;13.01;97.11;99359.38;5128589;28;20211;-80
2023/10/24 04:02:03;;;;;;;6.67;6.17;;;;;;;13.00;97.23;99370.78;5131945;28;21225;-80
2023/10/24 04:04:29;;;;;;;7.60;6.90;;;;;;;13.01;97.25;99377.72;5118384;28;20219;-80
2023/10/24 04:06:56;;;;;;;6.57;5.90;;;;;;;13.02;97.40;99381.16;5119007;28;20248;-80
2023/10/24 04:09:22;;;;;;;6.83;6.23;;;;;;;13.01;96.78;99369.00;5119843;28;20227;-80
2023/10/24 04:11:49;;;;;;;6.10;5.60;;;;;;;13.04;97.13;99379.31;5119832;27;20203;-80
2023/10/24 04:14:16;;;;;;;5.73;5.33;;;;;;;13.04;97.14;99380.19;5119956;28;20232;-80
2023/10/24 04:16:43;;;;;;;7.10;5.63;;;;;;;13.08;97.15;99389.63;5119558;27;20209;-80
2023/10/24 04:19:10;;;;;;;6.50;5.90;;;;;;;13.07;97.01;99401.00;5111733;28;20769;-80
2023/10/24 04:21:36;;;;;;;6.43;5.93;;;;;;;13.03;97.71;99386.34;5119562;28;20204;-80
2023/10/24 04:24:03;;;;;;;7.63;5.83;;;;;;;13.07;97.33;99384.44;5120203;28;20230;-80
2023/10/24 04:26:30;;;;;;;6.83;6.20;;;;;;;13.06;97.98;99380.09;5119560;27;20592;-80
2023/10/24 04:28:56;;;;;;;5.83;5.40;;;;;;;13.09;97.63;99362.47;5118711;28;20216;-80
2023/10/24 04:31:24;;;;;;;6.30;5.40;;;;;;;13.11;97.73;99355.41;5119316;28;20218;-80
2023/10/24 04:33:50;;;;;;;7.30;5.47;;;;;;;13.13;97.73;99367.59;5118593;28;20201;-81
2023/10/24 04:36:17;;;;;;;5.60;4.93;;;;;;;13.16;97.90;99375.28;5119123;28;20221;-80
2023/10/24 04:38:43;;;;;;;4.47;4.10;;;;;;;13.15;98.34;99350.03;5119405;28;20228;-80
2023/10/24 04:41:10;;;;;;;5.73;4.50;;;;;;;13.17;98.06;99345.56;5118594;28;20206;-81
2023/10/24 04:43:36;;;;;;;5.00;4.53;;;;;;;13.17;98.59;99350.81;5117956;28;20206;-80
2023/10/24 04:46:03;;;;;;;6.43;4.33;;;;;;;13.15;98.68;99340.38;5118394;28;20718;-80
2023/10/24 04:48:30;;;;;;;3.87;3.53;;;;;;;13.16;98.80;99331.63;5118689;28;20256;-80
2023/10/24 04:50:57;;;;;;;4.33;3.93;;;;;;;13.16;99.23;99308.03;5119294;28;20206;-80
2023/10/24 04:53:24;;;;;;;4.87;4.10;;;;;;;13.14;99.48;99309.88;5118988;27;20718;-80
2023/10/24 04:55:51;;;;;;;4.97;3.03;;;;;;;13.16;99.52;99313.28;5119044;28;20643;-80
2023/10/24 04:58:17;;;;;;;3.97;3.57;;;;;;;13.20;99.25;99316.56;5118236;28;20713;-80
2023/10/24 05:00:44;;;;;;;4.73;3.97;;;;;;;13.23;99.28;99321.69;5118408;28;20206;-80
2023/10/24 05:03:10;;;;;;;3.80;3.30;;;;;;;13.23;98.95;99319.91;5119034;28;20200;-80
2023/10/24 05:05:38;;;;;;;3.60;3.30;;;;;;;13.22;99.26;99312.09;5119136;28;20254;-80
2023/10/24 05:08:09;;;;;;;2.87;2.67;;;;;;;13.24;98.65;99315.50;5118717;28;20232;-80
2023/10/24 05:10:36;;;;;;;3.40;3.13;;;;;;;13.23;99.03;99306.81;5118396;28;20200;-79
2023/10/24 05:13:02;;;;;;;3.77;3.40;;;;;;;13.24;99.17;99300.66;5099492;28;20556;-80
2023/10/24 05:15:29;;;;;;;3.10;2.87;;;;;;;13.27;99.14;99308.34;5098215;28;20198;-80
2023/10/24 05:17:55;;;;;;;4.30;2.80;;;;;;;13.26;99.17;99298.81;5099802;28;20231;-80
2023/10/24 05:20:22;;;;;;;4.50;2.80;;;;;;;13.28;98.23;99310.06;5117708;28;20563;-80
2023/10/24 05:22:49;;;;;;;4.63;3.00;;;;;;;13.25;97.12;99328.53;5119020;28;20208;-80
2023/10/24 05:25:16;;;;;;;3.17;2.50;;;;;;;13.18;97.68;99323.66;5110757;28;20227;-80
2023/10/24 05:27:43;;;;;;;2.87;2.57;;;;;;;13.17;97.40;99312.34;5118187;28;20257;-80
2023/10/24 05:30:10;;;;;;;2.57;2.33;;;;;;;13.20;97.02;99327.06;5098472;28;20198;-80
2023/10/24 05:32:37;;;;;;;3.17;2.40;;;;;;;13.22;97.52;99328.69;5098108;28;20567;-80
2023/10/24 05:35:04;;;;;;;2.60;2.40;;;;;;;13.11;97.44;99326.56;5096679;28;20262;-80
2023/10/24 05:37:31;;;;;;;4.13;2.63;;;;;;;13.15;97.34;99331.69;5098168;28;20224;-80
2023/10/24 05:39:59;;;;;;;5.30;2.27;;;;;;;13.16;97.84;99320.25;5098562;28;20200;-80
2023/10/24 05:42:25;;;;;;;2.30;1.93;;;;;;;13.20;96.80;99327.06;5118352;28;20200;-80
2023/10/24 05:44:52;;;;;;;2.60;2.33;;;;;;;13.26;96.85;99334.63;5117059;27;20225;-80
2023/10/24 05:47:18;;;;;;;3.77;2.17;;;;;;;13.22;96.99;99340.94;5118033;28;20196;-80
2023/10/24 05:49:45;;;;;;;3.40;2.23;;;;;;;13.22;97.17;99330.44;5117269;28;20224;-80
2023/10/24 05:52:11;;;;;;;4.03;2.10;;;;;;;13.17;97.17;99337.69;5117431;27;20213;-80
2023/10/24 05:54:37;;;;;;;6.83;2.20;;;;;;;13.16;97.69;99339.47;5118030;28;20203;-80
2023/10/24 05:57:05;;;;;;;3.47;1.93;;;;;;;13.19;97.40;99333.22;5117287;28;20202;-80
2023/10/24 05:59:33;;;;;;;6.73;2.40;;;;;;;13.25;97.32;99331.16;5118010;27;20229;-80
2023/10/24 06:02:00;;;;;;;2.37;2.17;;;;;;;13.31;96.70;99327.44;5117366;28;20198;-80
2023/10/24 06:04:27;;;;;;;1.80;1.70;;;;;;;13.33;96.68;99330.81;5112699;28;20260;-80
2023/10/24 06:06:53;;;;;;;3.30;2.20;;;;;;;13.39;96.29;99333.16;5097382;28;20201;-80
2023/10/24 06:09:20;;;;;;;4.03;2.30;;;;;;;13.36;96.33;99327.19;5096490;28;20230;-80
2023/10/24 06:11:46;;;;;;;3.83;2.10;;;;;;;13.33;96.93;99322.97;5096856;28;20209;-80
2023/10/24 06:14:14;;;;;;;3.63;1.80;;;;;;;13.31;96.77;99322.19;5097161;28;20427;-80
2023/10/24 06:16:41;;;;;;;2.20;2.00;;;;;;;13.37;96.36;99332.38;5096557;28;20201;-80
2023/10/24 06:19:07;;;;;;;3.43;2.10;;;;;;;13.34;96.56;99336.91;5108568;28;20225;-81
2023/10/24 06:21:34;;;;;;;6.37;2.70;;;;;;;13.36;96.93;99327.19;5117099;28;20205;-80
2023/10/24 06:24:00;;;;;;;5.33;2.40;;;;;;;13.39;97.32;99320.03;5116761;28;20204;-80
2023/10/24 06:26:27;;;;;;;4.23;2.27;;;;;;;13.31;96.76;99330.06;5095734;28;20725;-80
2023/10/24 06:28:54;;;;;;;3.03;2.10;;;;;;;13.36;97.51;99319.34;5096235;28;20606;-80
2023/10/24 06:31:22;;;;;;;3.73;2.37;;;;;;;13.40;96.79;99331.38;5108498;28;20247;-80
2023/10/24 06:33:48;;;;;;;3.97;2.47;;;;;;;13.44;96.77;99332.94;5116229;28;20195;-81
2023/10/24 06:36:15;;;;;;;2.73;2.07;;;;;;;13.44;97.19;99335.56;5116610;28;20209;-81
2023/10/24 06:38:41;;;;;;;3.47;1.90;;;;;;;13.46;96.00;99355.53;5116054;28;20220;-80
2023/10/24 06:41:08;;;;;;;3.10;1.83;;;;;;;13.50;95.90;99354.47;5115299;28;20217;-80
2023/10/24 06:43:36;;;;;;;3.73;1.90;;;;;;;13.61;95.47;99356.53;5096024;28;20209;-81
2023/10/24 06:46:04;;;;;;;2.47;1.63;;;;;;;13.59;95.57;99365.41;5096758;28;20261;-81
2023/10/24 06:48:32;;;;;;;2.97;1.93;;;;;;;13.56;97.14;99362.94;5095827;28;20368;-81
2023/10/24 06:50:58;;;;;;;1.93;1.73;;;;;;;13.50;97.44;99354.47;5096088;28;20204;-81
2023/10/24 06:53:25;;;;;;;2.90;2.00;;;;;;;13.51;96.73;99348.28;5096233;28;20211;-80
2023/10/24 06:55:51;;;;;;;3.00;2.23;;;;;;;13.56;96.15;99358.56;5111124;28;20192;-80
2023/10/24 06:58:18;;;;;;;2.77;2.20;;;;;;;13.59;95.57;99371.50;5116367;28;20721;-80
2023/10/24 07:00:44;;;;;;;2.50;1.97;;;;;;;13.60;96.06;99361.88;5115104;28;20206;-81
2023/10/24 07:03:11;;;;;;;2.83;2.17;;;;;;;13.63;96.14;99356.47;5113496;28;20239;-81
2023/10/24 07:05:39;;;;;;;3.20;2.17;;;;;;;13.66;95.84;99345.84;5114122;28;20228;-80
2023/10/24 07:08:05;;;;;;;2.70;2.03;;;;;;;13.71;95.89;99341.22;5116326;28;20230;-81
2023/10/24 07:10:33;;;;;;;3.93;2.17;;;;;;;13.68;96.61;99338.75;5118925;28;20211;-80
2023/10/24 07:13:00;;;;;;;3.17;2.20;;;;;;;13.70;96.33;99344.78;5113933;28;20205;-81
2023/10/24 07:15:27;;;;;;;2.33;1.83;;;;;;;13.67;96.00;99352.78;5112603;28;20613;-80
2023/10/24 07:17:53;;;;;;;3.73;2.10;;;;;;;13.63;94.68;99353.84;5115370;28;20223;-80
2023/10/24 07:20:20;;;;;;;2.40;2.10;;;;;;;13.69;94.64;99364.03;5114199;28;20215;-80
2023/10/24 07:22:48;;;;;;;2.47;2.23;;;;;;;13.73;95.09;99349.84;5112131;28;20300;-80
2023/10/24 07:25:14;;;;;;;2.23;2.00;;;;;;;13.80;95.30;99353.03;5112663;28;20642;-80
2023/10/24 07:27:41;;;;;;;3.63;2.23;;;;;;;13.83;95.33;99334.50;5116507;28;20230;-81
2023/10/24 07:30:09;;;;;;;3.17;2.10;;;;;;;13.83;95.06;99337.97;5112533;28;20212;-80
2023/10/24 07:32:35;;;;;;;2.57;2.13;;;;;;;13.89;94.85;99342.94;5113711;28;20213;-80
2023/10/24 07:35:03;;;;;;;2.80;2.10;;;;;;;13.94;95.00;99353.19;5112502;28;20212;-80
2023/10/24 07:37:29;;;;;;;2.33;2.10;;;;;;;13.99;94.84;99345.06;5113603;28;20196;-80
2023/10/24 07:39:58;;;;;;;3.60;2.47;;;;;;;14.03;95.36;99337.00;5113348;28;20207;-80
2023/10/24 07:42:24;;;;;;;2.43;2.23;;;;;;;14.02;94.54;99351.03;5113829;28;20232;-80
2023/10/24 07:44:53;;;;;;;3.27;2.27;;;;;;;14.08;94.51;99348.09;5112990;28;20671;-80
2023/10/24 07:47:19;;;;;;;2.87;2.30;;;;;;;14.08;94.79;99342.00;5113018;28;20203;-81
2023/10/24 07:49:46;;;;;;;2.93;2.20;;;;;;;14.19;94.29;99354.56;5113082;28;20665;-80
2023/10/24 07:52:12;;;;;;;2.43;2.10;;;;;;;14.24;93.76;99365.69;5112371;28;20200;-80
2023/10/24 07:54:39;;;;;;;3.33;2.27;;;;;;;14.23;93.98;99356.97;5114352;28;20282;-80
2023/10/24 07:57:07;;;;;;;3.40;2.20;;;;;;;14.27;94.61;99341.88;5113922;28;20209;-81
2023/10/24 07:59:34;;;;;;;6.20;2.47;;;;;;;14.32;94.58;99350.38;5112133;28;20222;-81
2023/10/24 08:02:00;;;;;;;2.67;1.80;;;;;;;14.35;94.87;99350.22;5111708;28;20197;-81
2023/10/24 08:04:27;;;;;;;2.23;2.03;;;;;;;14.40;94.18;99352.59;5117113;28;20212;-81
2023/10/24 08:06:53;;;;;;;5.00;2.20;;;;;;;14.58;99.74;99275.50;5115979;28;20224;-80
2023/10/24 08:09:19;;;;;;;3.40;2.10;;;;;;;14.55;96.15;99294.03;5117084;28;20229;-80
2023/10/24 08:11:46;;;;;;;3.13;1.90;;;;;;;14.56;99.02;99261.59;5115948;28;20206;-81
2023/10/24 08:14:14;;;;;;;8.87;4.53;;;;;;;14.58;98.36;99262.38;5116662;28;20211;-81
2023/10/24 08:16:40;;;;;;;2.33;2.10;;;;;;;14.63;98.99;99255.09;5116596;28;20201;-81
2023/10/24 08:19:07;;;;;;;2.33;2.13;;;;;;;14.63;96.29;99284.00;5116581;28;20260;-80
2023/10/24 08:21:33;;;;;;;5.17;2.67;;;;;;;14.65;96.22;99307.56;5112444;28;20203;-79
2023/10/24 08:24:00;;;;;;;3.27;1.93;;;;;;;14.70;96.99;99306.34;5112782;28;20206;-81
2023/10/24 08:26:27;;;;;;;2.40;2.20;;;;;;;14.72;95.93;99314.16;5110930;28;20705;-81
2023/10/24 08:28:54;;;;;;;4.33;2.40;;;;;;;14.77;97.11;99290.28;5128714;28;20206;-80
2023/10/24 08:31:25;;;;;;;3.47;2.40;;;;;;;14.84;97.41;99281.13;5133994;28;20194;-81
2023/10/24 08:33:51;;;;;;;3.63;2.40;;;;;;;14.91;98.04;99279.00;5137200;28;20186;-81
2023/10/24 08:36:18;;;;;;;2.90;2.40;;;;;;;14.95;95.76;99306.81;5134309;28;20186;-83
2023/10/24 08:38:48;;;;;;;2.63;2.13;;;;;;;15.04;98.29;99283.50;5135676;28;20228;-80
2023/10/24 08:41:15;;;;;;;5.27;2.33;;;;;;;15.04;95.95;99312.41;5115614;28;20199;-81
2023/10/24 08:43:45;;;;;;;3.50;2.60;;;;;;;15.09;95.64;99326.13;5113767;28;20204;-81
2023/10/24 08:46:13;;;;;;;3.10;2.20;;;;;;;15.13;94.28;99353.09;5112179;28;20232;-81
2023/10/24 08:48:41;;;;;;;4.60;1.90;;;;;;;15.15;93.63;99376.69;5110838;28;20222;-80
2023/10/24 08:51:07;;;;;;;2.73;2.20;;;;;;;15.06;91.70;99401.66;5114027;28;20591;-80
2023/10/24 08:53:34;;;;;;;3.50;2.20;;;;;;;15.15;91.66;99419.56;5115329;28;20215;-81
2023/10/24 08:56:03;;;;;;;3.53;1.90;;;;;;;15.13;90.15;99444.25;5118157;28;20220;-81
2023/10/24 08:58:33;;;;;;;2.50;2.30;;;;;;;15.20;90.88;99438.59;5114528;28;20720;-80
2023/10/24 09:01:01;;;;;;;2.40;2.20;;;;;;;15.13;90.53;99470.53;5114577;28;20201;-80
2023/10/24 09:03:28;;;;;;;2.77;2.17;;;;;;;15.19;90.14;99465.78;5114934;28;20208;-81
2023/10/24 09:05:58;;;;;;;3.13;2.20;;;;;;;15.22;90.17;99475.28;5116276;28;20235;-81
2023/10/24 09:08:25;;;;;;;2.53;2.33;;;;;;;15.23;89.29;99483.09;5116015;28;20228;-81
2023/10/24 09:10:52;;;;;;;2.10;2.00;;;;;;;15.24;88.87;99494.44;5116464;28;20212;-81
2023/10/24 09:13:19;;;;;;;2.57;1.90;;;;;;;15.24;88.12;99491.81;5117707;28;20263;-81
2023/10/24 09:16:05;;;;;;;3.90;2.37;;;;;;;15.26;88.43;99503.09;5104428;28;20208;-81
2023/10/24 09:18:34;;;;;;;2.50;2.07;;;;;;;15.28;88.15;99504.75;5117791;28;20232;-81
2023/10/24 09:21:02;;;;;;;3.63;2.47;;;;;;;15.25;87.80;99499.63;5118548;28;20205;-82
2023/10/24 09:23:29;;;;;;;2.33;2.13;;;;;;;15.33;88.34;99486.09;5118390;28;20205;-81
2023/10/24 09:25:55;;;;;;;2.77;2.00;;;;;;;15.14;87.39;99490.63;5118432;28;20222;-81
2023/10/24 09:28:22;;;;;;;1.90;1.70;;;;;;;15.19;89.60;99476.31;5098659;28;20231;-79
2023/10/24 09:30:48;;;;;;;3.60;2.10;;;;;;;15.25;88.93;99473.34;5098289;28;20216;-80
2023/10/24 09:33:15;;;;;;;2.97;2.17;;;;;;;15.29;88.64;99485.41;5098743;28;20220;-82
2023/10/24 09:35:41;;;;;;;1.80;1.70;;;;;;;15.35;88.80;99494.75;5097477;28;20212;-81
2023/10/24 09:38:10;;;;;;;2.47;1.90;;;;;;;15.36;88.49;99508.72;5097843;28;20246;-82
2023/10/24 09:40:38;;;;;;;2.67;2.10;;;;;;;15.14;87.36;99537.94;5110199;28;20570;-81
2023/10/24 09:43:11;;;;;;;2.27;2.07;;;;;;;15.25;87.31;99538.22;5117900;28;20206;-82
2023/10/24 09:45:44;;;;;;;2.97;2.00;;;;;;;15.27;87.58;99539.84;5117538;28;20226;-81
2023/10/24 09:48:12;;;;;;;3.60;2.40;;;;;;;15.32;87.60;99539.63;5109667;28;20224;-82
2023/10/24 09:50:40;;;;;;;2.23;1.60;;;;;;;15.30;87.46;99546.72;5097538;28;20203;-81
2023/10/24 09:53:06;;;;;;;2.80;1.60;;;;;;;15.33;86.83;99564.13;5096879;28;20203;-81
2023/10/24 09:55:35;;;;;;;5.60;1.83;;;;;;;15.35;87.32;99559.63;5097866;28;20231;-81
2023/10/24 09:58:03;;;;;;;2.20;1.80;;;;;;;15.31;87.61;99551.06;5096827;28;20296;-81
2023/10/24 10:00:30;;;;;;;2.73;1.90;;;;;;;15.24;88.45;99526.00;5097970;28;20211;-81
2023/10/24 10:02:58;;;;;;;2.47;2.00;;;;;;;15.35;88.82;99500.00;4399136;28;10000608;-81
2023/10/24 10:05:29;;;;;;;1.83;1.73;;;;;;;15.24;86.55;99529.50;5114377;28;20218;-81
2023/10/24 10:07:57;;;;;;;2.23;1.50;;;;;;;15.26;86.82;99543.41;5114251;28;20214;-82
2023/10/24 10:10:24;;;;;;;3.73;2.20;;;;;;;15.32;87.24;99520.34;5114382;28;20205;-81
2023/10/24 10:12:56;;;;;;;1.70;1.60;;;;;;;15.36;87.83;99504.34;5114728;28;20671;-82
2023/10/24 10:15:50;;;;;;;1.80;1.70;;;;;;;15.41;88.15;99493.56;5113384;27;20214;-81
2023/10/24 10:18:32;;;;;;;2.47;1.87;;;;;;;15.44;87.61;99490.75;5114348;27;20234;-81
2023/10/24 10:21:09;;;;;;;2.23;2.03;;;;;;;15.44;87.61;99496.00;5114422;28;20234;-81
2023/10/24 10:24:03;;;;;;;2.60;1.63;;;;;;;15.47;87.83;99477.44;5103777;28;20216;-81
2023/10/24 10:26:45;;;;;;;1.93;1.60;;;;;;;15.14;85.66;99522.16;5096238;28;20246;-81
2023/10/24 10:29:24;;;;;;;2.53;1.67;;;;;;;15.23;87.15;99495.41;5114242;28;20243;-82
2023/10/24 10:32:03;;;;;;;1.80;1.60;;;;;;;15.27;87.70;99479.38;5114764;27;20210;-81
2023/10/24 10:34:34;;;;;;;2.20;1.63;;;;;;;15.42;88.20;99474.22;5096053;28;20618;-81
2023/10/24 10:37:01;;;;;;;1.73;1.63;;;;;;;15.19;84.93;99522.78;5095056;28;20874;-80
2023/10/24 10:39:28;;;;;;;1.80;1.50;;;;;;;15.29;85.51;99522.19;5094236;28;20226;-80
2023/10/24 10:41:55;;;;;;;4.03;1.93;;;;;;;15.34;85.96;99505.34;5094047;28;20193;-82
2023/10/24 10:44:40;;;;;;;2.30;1.70;;;;;;;15.45;86.94;99490.66;5094111;28;20209;-82
2023/10/24 10:47:08;;;;;;;3.60;1.50;;;;;;;15.48;87.01;99484.41;5106404;28;20592;-81
2023/10/24 10:49:42;;;;;;;2.73;1.60;;;;;;;15.62;89.36;99446.84;5095518;28;20620;-81
2023/10/24 10:52:12;;;;;;;2.97;2.00;;;;;;;15.59;87.45;99458.34;5094358;28;20215;-81
2023/10/24 10:54:48;;;;;;;2.60;1.70;;;;;;;15.60;86.22;99475.84;5093262;28;20691;-82
2023/10/24 10:57:20;;;;;;;2.63;1.40;;;;;;;15.40;84.84;99511.13;5101870;28;20671;-81
2023/10/24 10:59:54;;;;;;;2.20;1.57;;;;;;;15.42;86.44;99506.63;5106296;28;20206;-82
2023/10/24 11:02:48;;;;;;;1.50;1.40;;;;;;;15.47;86.74;99483.53;5108632;28;20214;-81
2023/10/24 11:05:49;;;;;;;2.57;1.97;;;;;;;15.53;86.29;99482.38;5108607;28;20201;-81
2023/10/24 11:08:22;;;;;;;1.80;1.30;;;;;;;15.53;87.56;99463.94;5106641;28;20266;-80
2023/10/24 11:10:53;;;;;;;1.60;1.50;;;;;;;15.47;87.62;99461.66;5110327;28;20245;-81
2023/10/24 11:13:37;;;;;;;2.57;1.90;;;;;;;15.56;88.29;99453.28;5108229;28;20684;-81
2023/10/24 11:16:06;;;;;;;1.67;1.57;;;;;;;15.60;88.23;99430.25;5109560;28;20210;-81
2023/10/24 11:18:37;;;;;;;2.17;1.43;;;;;;;15.59;87.41;99444.34;5108719;28;20247;-80
2023/10/24 11:21:05;;;;;;;1.70;1.60;;;;;;;15.60;86.34;99467.09;5109767;28;20206;-81
2023/10/24 11:23:33;;;;;;;3.37;1.70;;;;;;;15.62;89.49;99426.63;5108889;28;20260;-81
2023/10/24 11:26:00;;;;;;;1.23;1.13;;;;;;;15.62;88.52;99408.22;5109634;28;20202;-82
2023/10/24 11:28:27;;;;;;;4.53;1.50;;;;;;;15.61;87.37;99424.91;5108362;28;20238;-81
2023/10/24 11:30:54;;;;;;;2.13;1.63;;;;;;;15.67;88.41;99421.94;5111712;28;20217;-80
2023/10/24 11:33:22;;;;;;;2.30;1.40;;;;;;;15.71;90.49;99391.03;5111761;28;20231;-81
2023/10/24 11:36:06;;;;;;;2.10;1.50;;;;;;;15.73;91.56;99346.28;5082479;28;20213;-80
2023/10/24 11:38:37;;;;;;;5.70;1.53;;;;;;;15.72;91.30;99337.50;5109347;28;20229;-81